Time;durP1;ratioP1;P1;durP2;ratioP2;P2;SDS_P1;SDS_P2;PMS_P1;PMS_P2;Temp;Humidity;BMP_temperature;BMP_pressure;BME280_temperature;BME280_humidity;BME280_pressure;Samples;Min_cycle;Max_cycle;Signal;HPM_P1;HPM_P2
2022/06/05 00:00:00;;;;;;;18.63;11.45;;;;;;;;;;4924006;29;20051;-83
2022/06/05 00:02:32;;;;;;;18.17;11.75;;;;;;;;;;4923296;29;20074;-84
2022/06/05 00:05:31;;;;;;;18.15;11.10;;;;;;;;;;4925510;29;20058;-82
2022/06/05 00:08:15;;;;;;;19.95;11.57;;;;;;;;;;4887998;29;20063;-83
2022/06/05 00:10:46;;;;;;;20.23;12.30;;;;;;;;;;4936646;28;20051;-82
2022/06/05 00:13:12;;;;;;;20.15;11.55;;;;;;;;;;4938588;28;20055;-82
2022/06/05 00:15:38;;;;;;;19.83;11.00;;;;;;;;;;4920500;29;20404;-83
2022/06/05 00:18:04;;;;;;;18.60;11.98;;;;;;;;;;4942543;28;20055;-82
2022/06/05 00:20:31;;;;;;;21.48;11.48;;;;;;;;;;4927246;29;20054;-84
2022/06/05 00:22:58;;;;;;;22.80;11.45;;;;;;;;;;4918662;29;20051;-83
2022/06/05 00:25:26;;;;;;;20.25;10.75;;;;;;;;;;4941414;29;20047;-83
2022/06/05 00:27:52;;;;;;;25.60;11.27;;;;;;;;;;4941466;29;20407;-82
2022/06/05 00:30:51;;;;;;;19.45;11.02;;;;;;;;;;4921223;29;20051;-83
2022/06/05 00:33:27;;;;;;;19.50;10.88;;;;;;;;;;4921458;29;20040;-81
2022/06/05 00:35:57;;;;;;;17.00;9.40;;;;;;;;;;4922021;29;20047;-82
2022/06/05 00:38:28;;;;;;;24.17;11.68;;;;;;;;;;4927255;28;20039;-83
2022/06/05 00:41:17;;;;;;;20.10;10.43;;;;;;;;;;4919348;29;20047;-83
2022/06/05 00:43:44;;;;;;;21.25;11.27;;;;;;;;;;4936993;28;20035;-83
2022/06/05 00:46:10;;;;;;;20.63;10.80;;;;;;;;;;4920764;29;20047;-83
2022/06/05 00:48:36;;;;;;;18.17;10.85;;;;;;;;;;4908130;29;20046;-83
2022/06/05 00:51:03;;;;;;;21.33;10.70;;;;;;;;;;4921897;29;20098;-83
2022/06/05 00:53:29;;;;;;;16.90;10.82;;;;;;;;;;4940212;28;20481;-83
2022/06/05 00:55:55;;;;;;;15.85;10.43;;;;;;;;;;4941398;28;20095;-84
2022/06/05 00:58:21;;;;;;;21.48;10.98;;;;;;;;;;4943745;28;20043;-85
2022/06/05 01:00:49;;;;;;;22.23;11.35;;;;;;;;;;4910684;29;20114;-83
2022/06/05 01:03:16;;;;;;;21.67;11.20;;;;;;;;;;4922308;29;20137;-85
2022/06/05 01:05:42;;;;;;;16.05;10.63;;;;;;;;;;4920091;29;20487;-86
2022/06/05 01:08:09;;;;;;;19.95;10.88;;;;;;;;;;4943555;28;20061;-85
2022/06/05 01:10:54;;;;;;;18.90;11.40;;;;;;;;;;4938055;28;20035;-82
2022/06/05 01:13:20;;;;;;;18.10;10.88;;;;;;;;;;4909149;29;20503;-82
2022/06/05 01:15:49;;;;;;;17.38;11.90;;;;;;;;;;4928502;29;20098;-83
2022/06/05 01:18:45;;;;;;;24.55;11.52;;;;;;;;;;4941492;29;20040;-84
2022/06/05 01:21:18;;;;;;;18.83;11.52;;;;;;;;;;4944297;29;20161;-84
2022/06/05 01:24:03;;;;;;;24.55;12.05;;;;;;;;;;4940081;29;20047;-83
2022/06/05 01:26:50;;;;;;;21.50;11.98;;;;;;;;;;4923160;29;20054;-83
2022/06/05 01:29:19;;;;;;;17.90;11.45;;;;;;;;;;4923482;28;20142;-83
2022/06/05 01:31:49;;;;;;;25.42;11.68;;;;;;;;;;4922097;28;20118;-84
2022/06/05 01:34:23;;;;;;;19.52;11.52;;;;;;;;;;4922366;29;20450;-83
2022/06/05 01:36:49;;;;;;;19.95;11.55;;;;;;;;;;4908533;29;20043;-84
2022/06/05 01:39:22;;;;;;;27.55;12.00;;;;;;;;;;4940094;28;20047;-82
2022/06/05 01:41:50;;;;;;;20.05;12.32;;;;;;;;;;4916206;29;20496;-83
2022/06/05 01:44:19;;;;;;;22.65;13.30;;;;;;;;;;4942039;28;20514;-84
2022/06/05 01:46:45;;;;;;;21.73;11.65;;;;;;;;;;4921215;29;20062;-83
2022/06/05 01:49:30;;;;;;;25.00;12.32;;;;;;;;;;4923278;29;20125;-86
2022/06/05 01:51:59;;;;;;;26.33;11.95;;;;;;;;;;4943821;28;20175;-84
2022/06/05 01:54:31;;;;;;;26.23;12.27;;;;;;;;;;4942737;29;20067;-84
2022/06/05 01:56:58;;;;;;;22.35;11.88;;;;;;;;;;4923944;29;20059;-83
2022/06/05 01:59:34;;;;;;;26.00;12.40;;;;;;;;;;4943700;28;20081;-82
2022/06/05 02:02:04;;;;;;;25.63;13.10;;;;;;;;;;4939276;29;20051;-85
2022/06/05 02:04:34;;;;;;;22.45;13.00;;;;;;;;;;4941904;28;20510;-86
2022/06/05 02:07:07;;;;;;;24.58;13.88;;;;;;;;;;4943255;28;20046;-83
2022/06/05 02:09:35;;;;;;;24.30;13.63;;;;;;;;;;4939042;28;20499;-85
2022/06/05 02:12:02;;;;;;;28.42;14.77;;;;;;;;;;4942512;28;20335;-83
2022/06/05 02:14:29;;;;;;;25.05;13.55;;;;;;;;;;4920881;29;20047;-85
2022/06/05 02:16:55;;;;;;;21.13;13.63;;;;;;;;;;4943307;28;20150;-84
2022/06/05 02:19:22;;;;;;;20.48;14.50;;;;;;;;;;4921766;29;20102;-86
2022/06/05 02:21:49;;;;;;;24.65;14.27;;;;;;;;;;4940474;28;20085;-84
2022/06/05 02:24:16;;;;;;;28.08;15.55;;;;;;;;;;4938569;28;20407;-85
2022/06/05 02:26:42;;;;;;;25.60;14.43;;;;;;;;;;4939778;28;20043;-82
2022/06/05 02:29:12;;;;;;;19.17;14.43;;;;;;;;;;4916805;29;20091;-83
2022/06/05 02:31:47;;;;;;;30.63;14.38;;;;;;;;;;4938388;28;20042;-84
2022/06/05 02:34:16;;;;;;;24.50;15.43;;;;;;;;;;4918793;29;20119;-82
2022/06/05 02:36:43;;;;;;;29.05;15.60;;;;;;;;;;4934492;28;20040;-81
2022/06/05 02:39:18;;;;;;;29.05;15.82;;;;;;;;;;4944180;28;20087;-82
2022/06/05 02:41:55;;;;;;;28.42;16.08;;;;;;;;;;4926659;29;20099;-85
2022/06/05 02:44:41;;;;;;;25.88;14.73;;;;;;;;;;4930391;29;20047;-84
2022/06/05 02:47:13;;;;;;;21.75;13.95;;;;;;;;;;4947500;29;20124;-84
2022/06/05 02:49:46;;;;;;;30.20;14.50;;;;;;;;;;4944773;29;20487;-84
2022/06/05 02:52:12;;;;;;;26.33;16.83;;;;;;;;;;4910489;29;20526;-85
2022/06/05 02:54:43;;;;;;;25.08;15.18;;;;;;;;;;4944291;28;20051;-87
2022/06/05 02:57:09;;;;;;;26.00;15.45;;;;;;;;;;4902250;29;20088;-83
2022/06/05 02:59:35;;;;;;;23.92;15.25;;;;;;;;;;4900789;28;20506;-82
2022/06/05 03:04:46;;;;;;;27.55;14.63;;;;;;;;;;4922526;29;20115;-83
2022/06/05 03:07:12;;;;;;;29.70;14.98;;;;;;;;;;4934664;28;20411;-83
2022/06/05 03:09:38;;;;;;;24.13;15.35;;;;;;;;;;4939519;28;20035;-84
2022/06/05 03:12:04;;;;;;;24.08;14.93;;;;;;;;;;4931952;28;20348;-82
2022/06/05 03:14:31;;;;;;;28.20;15.45;;;;;;;;;;4937946;28;20696;-83
2022/06/05 03:16:57;;;;;;;29.27;14.20;;;;;;;;;;4933810;28;20047;-84
2022/06/05 03:19:23;;;;;;;28.25;14.77;;;;;;;;;;4916188;28;20043;-83
2022/06/05 03:21:49;;;;;;;24.88;15.68;;;;;;;;;;4933223;28;20098;-84
2022/06/05 03:24:15;;;;;;;32.47;16.83;;;;;;;;;;4911470;28;20110;-84
2022/06/05 03:26:41;;;;;;;26.85;16.65;;;;;;;;;;4935004;28;20134;-82
2022/06/05 03:29:08;;;;;;;29.58;15.30;;;;;;;;;;4935966;28;20039;-84
2022/06/05 03:31:35;;;;;;;29.05;17.15;;;;;;;;;;4933627;28;20051;-83
2022/06/05 03:34:01;;;;;;;23.67;15.50;;;;;;;;;;4912734;29;20130;-82
2022/06/05 03:36:27;;;;;;;32.13;16.17;;;;;;;;;;4917390;29;20372;-82
2022/06/05 03:38:53;;;;;;;29.73;15.20;;;;;;;;;;4928774;28;21019;-84
2022/06/05 03:41:25;;;;;;;25.98;15.73;;;;;;;;;;4933799;28;20059;-83
2022/06/05 03:43:51;;;;;;;30.20;15.35;;;;;;;;;;4917184;29;20047;-82
2022/06/05 03:46:19;;;;;;;24.50;15.75;;;;;;;;;;4917461;29;20062;-82
2022/06/05 03:48:45;;;;;;;24.75;15.63;;;;;;;;;;4935827;28;20047;-82
2022/06/05 03:51:11;;;;;;;28.05;15.52;;;;;;;;;;4940293;29;20165;-81
2022/06/05 03:53:38;;;;;;;29.38;16.42;;;;;;;;;;4919291;28;20436;-82
2022/06/05 03:56:08;;;;;;;26.67;15.35;;;;;;;;;;4937660;28;20055;-82
2022/06/05 03:58:34;;;;;;;27.95;16.83;;;;;;;;;;4936586;28;20043;-83
2022/06/05 04:01:00;;;;;;;30.00;16.58;;;;;;;;;;4906467;29;20093;-82
2022/06/05 04:03:26;;;;;;;25.98;16.75;;;;;;;;;;4904517;28;20500;-82
2022/06/05 04:05:52;;;;;;;29.30;16.63;;;;;;;;;;4893763;29;20441;-82
2022/06/05 04:08:19;;;;;;;30.23;17.10;;;;;;;;;;4941519;28;20043;-82
2022/06/05 04:10:45;;;;;;;26.67;16.92;;;;;;;;;;4921233;29;20056;-84
2022/06/05 04:13:11;;;;;;;33.08;17.25;;;;;;;;;;4938359;29;20036;-85
2022/06/05 04:15:38;;;;;;;30.75;18.08;;;;;;;;;;4906374;29;20629;-82
2022/06/05 04:18:04;;;;;;;25.20;16.85;;;;;;;;;;4939769;28;20130;-82
2022/06/05 04:20:32;;;;;;;23.73;17.50;;;;;;;;;;4905407;29;20072;-82
2022/06/05 04:22:58;;;;;;;26.05;17.27;;;;;;;;;;4903777;28;20066;-83
2022/06/05 04:25:27;;;;;;;27.00;16.30;;;;;;;;;;4937767;29;20153;-83
2022/06/05 04:27:53;;;;;;;26.73;17.92;;;;;;;;;;4925342;28;20043;-83
2022/06/05 04:30:19;;;;;;;32.05;18.15;;;;;;;;;;4909371;29;20047;-83
2022/06/05 04:32:45;;;;;;;35.15;18.02;;;;;;;;;;4909909;29;20114;-82
2022/06/05 04:35:11;;;;;;;25.08;16.67;;;;;;;;;;4925935;29;20337;-82
2022/06/05 04:37:37;;;;;;;22.80;16.95;;;;;;;;;;4910522;29;20043;-82
2022/06/05 04:40:05;;;;;;;24.85;17.02;;;;;;;;;;4911299;29;20134;-81
2022/06/05 04:42:31;;;;;;;29.98;18.23;;;;;;;;;;4910606;29;20146;-81
2022/06/05 04:44:58;;;;;;;22.67;16.10;;;;;;;;;;4941641;29;20047;-83
2022/06/05 04:47:24;;;;;;;26.23;16.83;;;;;;;;;;4926532;29;20391;-85
2022/06/05 04:49:50;;;;;;;25.67;16.83;;;;;;;;;;4942560;29;20089;-83
2022/06/05 04:52:16;;;;;;;32.35;17.17;;;;;;;;;;4921334;29;20048;-83
2022/06/05 04:54:42;;;;;;;26.60;16.38;;;;;;;;;;4908989;29;20508;-83
2022/06/05 04:57:08;;;;;;;32.08;15.98;;;;;;;;;;4919740;29;20059;-84
2022/06/05 04:59:34;;;;;;;22.30;15.07;;;;;;;;;;4925022;29;20075;-83
2022/06/05 05:02:00;;;;;;;23.73;15.80;;;;;;;;;;4925188;29;20055;-84
2022/06/05 05:04:26;;;;;;;26.27;15.48;;;;;;;;;;4898291;28;20131;-83
2022/06/05 05:06:53;;;;;;;22.67;15.18;;;;;;;;;;4940294;28;20149;-85
2022/06/05 05:09:28;;;;;;;23.83;14.65;;;;;;;;;;4937712;28;20147;-84
2022/06/05 05:11:54;;;;;;;21.70;15.13;;;;;;;;;;4923852;29;20037;-84
2022/06/05 05:14:20;;;;;;;21.67;16.08;;;;;;;;;;4940879;29;20138;-84
2022/06/05 05:16:46;;;;;;;21.25;15.05;;;;;;;;;;4922516;29;20044;-85
2022/06/05 05:19:12;;;;;;;20.25;14.48;;;;;;;;;;4910411;29;20130;-82
2022/06/05 05:21:39;;;;;;;17.60;14.50;;;;;;;;;;4897306;29;20465;-85
2022/06/05 05:24:07;;;;;;;23.13;15.30;;;;;;;;;;4919155;29;20491;-86
2022/06/05 05:26:34;;;;;;;19.73;14.43;;;;;;;;;;4923923;29;20043;-85
2022/06/05 05:29:00;;;;;;;25.23;16.05;;;;;;;;;;4940039;29;20047;-84
2022/06/05 05:31:28;;;;;;;20.45;14.77;;;;;;;;;;4923933;29;20384;-84
2022/06/05 05:33:56;;;;;;;24.80;15.80;;;;;;;;;;4940956;28;20043;-83
2022/06/05 05:36:23;;;;;;;22.80;15.85;;;;;;;;;;4922411;29;20514;-83
2022/06/05 05:44:20;;;;;;;23.30;15.60;;;;;;;;;;4921873;29;20065;-84
2022/06/05 05:46:46;;;;;;;21.33;15.38;;;;;;;;;;4939505;29;20051;-86
2022/06/05 05:49:13;;;;;;;21.40;16.00;;;;;;;;;;4939010;28;20060;-84
2022/06/05 05:51:39;;;;;;;22.58;16.15;;;;;;;;;;4924239;29;20550;-84
2022/06/05 05:54:06;;;;;;;25.00;15.32;;;;;;;;;;4916128;29;20048;-84
2022/06/05 05:56:41;;;;;;;22.27;15.85;;;;;;;;;;4923205;29;20062;-85
2022/06/05 05:59:07;;;;;;;21.50;15.02;;;;;;;;;;4898640;29;20054;-85
2022/06/05 06:01:44;;;;;;;22.38;15.57;;;;;;;;;;4903155;29;20095;-83
2022/06/05 06:04:28;;;;;;;23.55;15.20;;;;;;;;;;4886589;29;20083;-84
2022/06/05 06:06:55;;;;;;;20.90;14.43;;;;;;;;;;4923820;23;20412;-84
2022/06/05 06:09:21;;;;;;;19.30;14.48;;;;;;;;;;4925212;29;20699;-83
2022/06/05 06:14:39;;;;;;;18.02;13.77;;;;;;;;;;4925390;29;20512;-84
2022/06/05 06:17:05;;;;;;;16.50;13.95;;;;;;;;;;4920912;29;20080;-84
2022/06/05 06:19:31;;;;;;;18.10;13.75;;;;;;;;;;4922420;29;21244;-84
2022/06/05 06:22:07;;;;;;;17.73;14.13;;;;;;;;;;4922043;29;20400;-84
2022/06/05 06:24:33;;;;;;;17.70;14.43;;;;;;;;;;4907095;29;20056;-82
2022/06/05 06:26:59;;;;;;;15.32;13.60;;;;;;;;;;4905689;29;20638;-82
2022/06/05 06:29:26;;;;;;;20.55;14.05;;;;;;;;;;4918175;29;20115;-85
2022/06/05 06:31:58;;;;;;;16.77;13.32;;;;;;;;;;4940232;29;20139;-84
2022/06/05 06:34:30;;;;;;;27.38;13.50;;;;;;;;;;4931521;28;20131;-85
2022/06/05 06:37:05;;;;;;;22.25;14.45;;;;;;;;;;4923936;29;20504;-85
2022/06/05 06:39:41;;;;;;;16.25;13.52;;;;;;;;;;4923533;29;20090;-83
2022/06/05 06:42:07;;;;;;;18.38;13.07;;;;;;;;;;4924628;29;20122;-85
2022/06/05 06:44:33;;;;;;;17.08;11.85;;;;;;;;;;4925019;29;20087;-84
2022/06/05 06:47:30;;;;;;;17.48;13.13;;;;;;;;;;4921708;29;20052;-85
2022/06/05 06:49:56;;;;;;;18.50;12.38;;;;;;;;;;4926156;29;20051;-83
2022/06/05 06:52:22;;;;;;;14.32;11.93;;;;;;;;;;4905871;29;20055;-84
2022/06/05 06:54:50;;;;;;;16.70;12.63;;;;;;;;;;4892124;29;20040;-84
2022/06/05 06:59:46;;;;;;;15.80;12.02;;;;;;;;;;4952066;28;20055;-83
2022/06/05 07:02:12;;;;;;;14.70;11.55;;;;;;;;;;4933220;28;20059;-84
2022/06/05 07:04:38;;;;;;;15.40;12.13;;;;;;;;;;4908756;28;20727;-85
2022/06/05 07:07:17;;;;;;;14.20;10.95;;;;;;;;;;4935923;28;20047;-84
2022/06/05 07:09:43;;;;;;;15.70;11.60;;;;;;;;;;4948050;28;21747;-84
2022/06/05 07:12:09;;;;;;;13.02;11.63;;;;;;;;;;4929328;28;20051;-84
2022/06/05 07:14:35;;;;;;;12.00;10.25;;;;;;;;;;4934315;28;20054;-83
2022/06/05 07:17:11;;;;;;;12.25;11.05;;;;;;;;;;4954220;28;20498;-84
2022/06/05 07:19:43;;;;;;;12.75;10.10;;;;;;;;;;4950545;28;20034;-83
2022/06/05 07:22:19;;;;;;;13.32;10.10;;;;;;;;;;4954977;28;20050;-84
2022/06/05 07:24:54;;;;;;;14.02;10.55;;;;;;;;;;4945726;28;20572;-84
2022/06/05 07:27:21;;;;;;;12.70;9.88;;;;;;;;;;4916260;29;20047;-84
2022/06/05 07:29:53;;;;;;;11.82;8.90;;;;;;;;;;4944912;28;20079;-84
2022/06/05 07:32:35;;;;;;;11.32;8.63;;;;;;;;;;4919924;29;20466;-84
2022/06/05 07:35:02;;;;;;;10.93;9.43;;;;;;;;;;4935736;28;20055;-84
2022/06/05 07:37:34;;;;;;;9.65;8.65;;;;;;;;;;4931926;28;20407;-84
2022/06/05 07:40:00;;;;;;;13.77;9.18;;;;;;;;;;4932835;28;20051;-84
2022/06/05 07:42:29;;;;;;;11.18;8.55;;;;;;;;;;4951157;28;20054;-84
2022/06/05 07:45:07;;;;;;;9.43;8.52;;;;;;;;;;4938134;28;20113;-84
2022/06/05 07:47:35;;;;;;;11.13;8.75;;;;;;;;;;4947981;28;20411;-85
2022/06/05 07:50:02;;;;;;;13.05;9.77;;;;;;;;;;4941302;28;20749;-84
2022/06/05 07:55:44;;;;;;;11.50;8.57;;;;;;;;;;4932119;28;20042;-85
2022/06/05 07:58:10;;;;;;;12.27;8.98;;;;;;;;;;4950343;28;20647;-83
2022/06/05 08:00:39;;;;;;;12.27;8.40;;;;;;;;;;4881311;29;20060;-84
2022/06/05 08:03:06;;;;;;;12.25;8.27;;;;;;;;;;4886647;29;20055;-84
2022/06/05 08:08:09;;;;;;;10.40;8.68;;;;;;;;;;4901621;23;20103;-85
2022/06/05 08:10:36;;;;;;;10.18;7.90;;;;;;;;;;4886911;29;20040;-84
2022/06/05 08:13:03;;;;;;;8.82;7.95;;;;;;;;;;4888178;29;20493;-84
2022/06/05 08:15:29;;;;;;;9.93;7.07;;;;;;;;;;4892412;29;20611;-83
2022/06/05 08:18:15;;;;;;;8.77;7.18;;;;;;;;;;4865393;29;20080;-84
2022/06/05 08:20:41;;;;;;;9.50;7.03;;;;;;;;;;4854834;29;20156;-85
2022/06/05 08:23:16;;;;;;;7.97;7.15;;;;;;;;;;4875253;29;20140;-84
2022/06/05 08:25:43;;;;;;;9.35;6.72;;;;;;;;;;4832748;29;20057;-85
2022/06/05 08:28:10;;;;;;;9.23;6.95;;;;;;;;;;4860960;29;20147;-84
2022/06/05 08:30:37;;;;;;;7.85;7.05;;;;;;;;;;4812556;29;20097;-84
2022/06/05 08:33:04;;;;;;;7.93;7.13;;;;;;;;;;4846960;29;20057;-83
2022/06/05 08:35:30;;;;;;;9.15;7.47;;;;;;;;;;4865309;29;20076;-85
2022/06/05 08:43:38;;;;;;;8.13;6.90;;;;;;;;;;4870207;29;20060;-85
2022/06/05 08:46:25;;;;;;;9.30;7.65;;;;;;;;;;4854901;29;20117;-85
2022/06/05 08:49:05;;;;;;;10.57;7.65;;;;;;;;;;4891243;29;20059;-86
2022/06/05 08:51:56;;;;;;;8.48;7.05;;;20.70;99.90;;;;;;4902217;29;20056;-86
2022/06/05 08:54:44;;;;;;;7.22;6.25;;;;;;;;;;4893134;29;20048;-86
2022/06/05 08:57:30;;;;;;;8.93;6.75;;;;;;;;;;4922842;29;20084;-84
2022/06/05 09:00:02;;;;;;;8.43;6.95;;;;;;;;;;4921425;29;20083;-86
2022/06/05 09:03:00;;;;;;;7.70;6.80;;;;;;;;;;4927842;29;20409;-86
2022/06/05 09:05:35;;;;;;;9.35;6.95;;;;;;;;;;4895504;29;20063;-85
2022/06/05 09:08:17;;;;;;;13.88;6.32;;;;;;;;;;4897817;29;20056;-85
2022/06/05 09:10:48;;;;;;;9.20;6.22;;;;;;;;;;4895055;29;20050;-86
2022/06/05 09:13:31;;;;;;;7.85;6.05;;;;;;;;;;4893339;29;20040;-86
2022/06/05 09:15:58;;;;;;;6.78;5.80;;;;;;;;;;4912480;29;20126;-86
2022/06/05 09:18:42;;;;;;;7.18;6.47;;;;;;;;;;4893826;29;20040;-86
2022/06/05 09:21:42;;;;;;;7.90;6.55;;;;;;;;;;4885984;29;20066;-86
2022/06/05 09:24:46;;;;;;;6.85;6.10;;;;;;;;;;4911199;29;20484;-87
2022/06/05 09:27:24;;;;;;;;;;;;;;;;;;4834784;29;20038;-85
2022/06/05 09:30:16;;;;;;;6.68;5.47;;;22.00;99.90;;;;;;4828796;29;19993;-87
2022/06/05 09:33:00;;;;;;;7.05;5.18;;;;;;;;;;4827885;29;20089;-86
2022/06/05 09:35:36;;;;;;;5.82;4.95;;;;;;;;;;4798150;29;20132;-86
2022/06/05 09:38:24;;;;;;;5.47;4.97;;;;;;;;;;4811210;29;20107;-85
2022/06/05 09:40:59;;;;;;;9.25;5.35;;;;;;;;;;4828277;29;20061;-85
2022/06/05 09:43:43;;;;;;;6.70;5.28;;;;;;;;;;4810494;29;20114;-85
2022/06/05 09:46:43;;;;;;;7.60;5.35;;;22.30;99.90;;;;;;4825690;29;20128;-84
2022/06/05 09:49:12;;;;;;;7.10;4.97;;;;;;;;;;4829866;29;20050;-84
2022/06/05 09:51:56;;;;;;;6.97;5.07;;;;;;;;;;4827594;29;20097;-86
2022/06/05 09:54:40;;;;;;;6.22;5.00;;;;;;;;;;4834049;29;20054;-85
2022/06/05 10:00:46;;;;;;;8.13;5.03;;;;;;;;;;4889500;29;20408;-86
2022/06/05 10:03:42;;;;;;;8.00;5.35;;;;;;;;;;4904107;29;20095;-84
2022/06/05 10:16:28;;;;;;;6.03;4.72;;;;;;;;;;4924497;28;20059;-84
2022/06/05 10:19:15;;;;;;;6.53;4.57;;;;;;;;;;4894568;29;20093;-85
2022/06/05 10:22:15;;;;;;;8.73;4.70;;;;;;;;;;4879600;29;20055;-85
2022/06/05 10:24:56;;;;;;;6.47;4.95;;;;;;;;;;4910173;29;20079;-84
2022/06/05 10:31:13;;;;;;;7.10;4.60;;;;;;;;;;4925489;28;20138;-86
2022/06/05 10:36:43;;;;;;;6.43;5.63;;;;;;;;;;4916566;29;20058;-87
2022/06/05 10:39:28;;;;;;;9.02;5.35;;;;;;;;;;4899206;29;20048;-87
2022/06/05 10:41:58;;;;;;;7.50;5.10;;;;;;;;;;4920397;29;20103;-86
2022/06/05 10:44:24;;;;;;;10.25;5.63;;;;;;;;;;4925099;29;20044;-86
2022/06/05 10:57:39;;;;;;;10.43;5.10;;;;;;;;;;4931282;23;20052;-83
2022/06/05 11:00:17;;;;;;;9.23;5.45;;;;;;;;;;4943767;29;20032;-85
2022/06/05 11:03:02;;;;;;;5.85;5.13;;;;;;;;;;4945396;29;20036;-85
2022/06/05 11:09:02;;;;;;;8.32;5.63;;;;;;;;;;4928507;29;20060;-86
2022/06/05 11:15:40;;;;;;;7.43;4.57;;;;;;;;;;4925858;29;20507;-87
2022/06/05 11:18:21;;;;;;;5.15;4.65;;;;;;;;;;4920246;29;20048;-87
2022/06/05 11:20:57;;;;;;;6.03;4.85;;;;;;;;;;4923906;29;20154;-85
2022/06/05 11:23:57;;;;;;;5.00;4.60;;;;;;;;;;4918805;29;20531;-87
2022/06/05 11:26:42;;;;;;;6.95;5.10;;;;;;;;;;4924835;29;20059;-87
2022/06/05 11:29:45;;;;;;;5.30;4.63;;;;;;;;;;4925737;29;20098;-87
2022/06/05 11:39:19;;;;;;;5.50;4.57;;;;;;;;;;4903409;29;20055;-87
2022/06/05 11:41:55;;;;;;;6.45;4.93;;;;;;;;;;4921740;29;20043;-88
2022/06/05 11:44:30;;;;;;;6.53;4.45;;;;;;;;;;4893941;29;20051;-87
2022/06/05 11:47:18;;;;;;;5.03;4.20;;;;;;;;;;4937502;29;20020;-86
2022/06/05 11:56:12;;;;;;;7.78;4.20;;;24.80;99.90;;;;;;4912270;29;20036;-86
2022/06/05 12:02:35;;;;;;;6.45;3.92;;;;;;;;;;4852405;29;20060;-87
2022/06/05 12:08:33;;;;;;;6.32;4.00;;;;;;;;;;4857310;29;20104;-86
2022/06/05 12:11:40;;;;;;;5.78;4.20;;;25.10;99.90;;;;;;4856331;29;20059;-87
2022/06/05 12:14:19;;;;;;;6.25;4.00;;;;;;;;;;4838568;29;20099;-87
2022/06/05 12:16:57;;;;;;;5.15;3.95;;;;;;;;;;4865632;29;20173;-86
2022/06/05 12:19:42;;;;;;;9.02;3.72;;;;;;;;;;4858771;29;20053;-86
2022/06/05 12:22:30;;;;;;;7.07;4.10;;;;;;;;;;4856446;29;20059;-88
2022/06/05 12:25:00;;;;;;;4.95;4.25;;;;;;;;;;4856641;29;20048;-86
2022/06/05 12:27:44;;;;;;;6.25;4.18;;;;;;;;;;4842406;29;20513;-86
2022/06/05 12:30:36;;;;;;;4.78;3.95;;;;;;;;;;4858152;29;20060;-85
2022/06/05 12:33:10;;;;;;;6.32;4.30;;;;;;;;;;4911457;29;20051;-84
2022/06/05 12:35:38;;;;;;;10.10;4.65;;;;;;;;;;4916253;29;20055;-85
2022/06/05 12:38:32;;;;;;;5.80;4.30;;;;;;;;;;4932943;29;20147;-85
2022/06/05 12:48:20;;;;;;;6.18;4.07;;;;;;;;;;4912089;29;20055;-87
2022/06/05 12:51:01;;;;;;;6.70;4.72;;;;;;;;;;4908758;29;20083;-87
2022/06/05 12:53:30;;;;;;;6.45;4.15;;;;;;;;;;4895752;29;20054;-87
2022/06/05 12:56:02;;;;;;;4.90;4.30;;;;;;;;;;4915012;29;20056;-87
2022/06/05 12:58:35;;;;;;;6.57;4.33;;;;;;;;;;4897618;29;20048;-87
2022/06/05 13:01:09;;;;;;;6.05;4.32;;;;;;;;;;4911711;29;20037;-87
2022/06/05 13:04:06;;;;;;;5.03;4.53;;;;;;;;;;4914567;29;20095;-88
2022/06/05 13:06:38;;;;;;;4.20;3.88;;;;;;;;;;4892078;29;20142;-86
2022/06/05 13:12:36;;;;;;;5.32;4.00;;;;;;;;;;4915544;29;20159;-88
2022/06/05 13:15:38;;;;;;;;;;;;;;;;;;;;;
2022/06/05 13:18:35;;;;;;;4.90;4.18;;;;;;;;;;4900468;29;20127;-88
2022/06/05 13:21:38;;;;;;;5.82;4.18;;;24.20;99.90;;;;;;4914032;29;20059;-86
2022/06/05 13:24:26;;;;;;;5.93;4.05;;;;;;;;;;4912075;29;20056;-88
2022/06/05 13:27:14;;;;;;;4.80;4.20;;;;;;;;;;4903659;29;20449;-87
2022/06/05 13:30:09;;;;;;;7.60;4.20;;;;;;;;;;4913284;29;20059;-87
2022/06/05 13:32:38;;;;;;;5.85;4.00;;;;;;;;;;4903044;29;20052;-86
2022/06/05 13:35:23;;;;;;;8.00;3.85;;;;;;;;;;4891717;29;20841;-87
2022/06/05 13:41:35;;;;;;;6.32;4.18;;;24.10;99.90;;;;;;4892270;29;20048;-86
2022/06/05 13:47:32;;;;;;;5.63;3.65;;;;;;;;;;4914282;29;20134;-87
2022/06/05 13:50:17;;;;;;;4.70;3.95;;;;;;;;;;4908581;29;20539;-87
2022/06/05 13:59:24;;;;;;;;;;;;;;;;;;;;;
2022/06/05 14:05:35;;;;;;;4.63;3.88;;;24.60;99.90;;;;;;4934909;23;20057;-86
2022/06/05 14:08:34;;;;;;;4.47;3.83;;;;;;;;;;4915017;29;20075;-86
2022/06/05 14:11:37;;;;;;;5.30;4.10;;;;;;;;;;4912598;29;20307;-86
2022/06/05 14:14:43;;;;;;;5.23;3.97;;;;;;;;;;4927960;29;20051;-86
2022/06/05 14:17:22;;;;;;;6.03;3.63;;;;;;;;;;4930085;29;20039;-86
2022/06/05 14:23:20;;;;;;;4.20;3.80;;;;;;;;;;4930732;29;20412;-87
2022/06/05 14:26:05;;;;;;;6.30;3.90;;;;;;;;;;4926997;29;20047;-87
2022/06/05 14:28:53;;;;;;;13.70;3.60;;;;;;;;;;4919576;29;20062;-86
2022/06/05 14:31:22;;;;;;;5.38;3.47;;;;;;;;;;4917779;29;20144;-87
2022/06/05 14:37:46;;;;;;;6.03;3.80;;;;;;;;;;4929232;29;20051;-87
2022/06/05 14:46:41;;;;;;;8.02;3.95;;;;;;;;;;4913288;29;20096;-86
2022/06/05 14:49:29;;;;;;;4.00;3.60;;;;;;;;;;4902080;29;20052;-86
2022/06/05 14:52:32;;;;;;;3.92;3.55;;;;;;;;;;4912175;29;20055;-85
2022/06/05 14:58:36;;;;;;;4.40;3.70;;;;;;;;;;4930397;29;20495;-87
2022/06/05 15:01:02;;;;;;;4.68;4.15;;;;;;;;;;4909213;29;20071;-87
2022/06/05 15:03:51;;;;;;;4.22;3.83;;;;;;;;;;4903278;23;20126;-87
2022/06/05 15:06:19;;;;;;;4.32;3.92;;;;;;;;;;4901156;29;20146;-87
2022/06/05 15:08:56;;;;;;;3.92;3.42;;;;;;;;;;4917235;29;20047;-88
2022/06/05 15:11:29;;;;;;;4.30;3.58;;;;;;;;;;4920209;29;20575;-87
2022/06/05 15:14:00;;;;;;;6.68;3.92;;;;;;;;;;4927739;29;20138;-87
2022/06/05 15:16:37;;;;;;;5.28;3.83;;;;;;;;;;4925856;29;20110;-88
2022/06/05 15:19:03;;;;;;;4.20;3.80;;;;;;;;;;4921980;29;20400;-87
2022/06/05 15:21:35;;;;;;;5.13;3.50;;;;;;;;;;4922809;29;20202;-88
2022/06/05 15:24:18;;;;;;;6.60;4.50;;;;;;;;;;4909222;29;20059;-86
2022/06/05 15:26:51;;;;;;;5.90;3.40;;;;;;;;;;4920486;28;20133;-88
2022/06/05 15:29:17;;;;;;;7.47;3.67;;;;;;;;;;4904143;29;20335;-87
2022/06/05 15:31:49;;;;;;;12.40;3.90;;;;;;;;;;4916821;29;20043;-87
2022/06/05 15:34:35;;;;;;;4.40;4.00;;;;;;;;;;4902555;29;20059;-87
2022/06/05 15:47:56;;;;;;;6.32;3.90;;;23.20;99.90;;;;;;4918572;29;20082;-89
2022/06/05 15:50:34;;;;;;;8.10;4.03;;;;;;;;;;4908189;29;20050;-88
2022/06/05 15:53:19;;;;;;;8.25;4.00;;;;;;;;;;4902277;29;20040;-87
2022/06/05 15:56:04;;;;;;;4.10;3.65;;;;;;;;;;4917729;29;20052;-87
2022/06/05 15:58:58;;;;;;;4.20;3.80;;;;;;;;;;4897297;29;20113;-87
2022/06/05 16:01:47;;;;;;;6.35;4.68;;;22.90;99.90;;;;;;4918342;29;20071;-88
2022/06/05 16:04:24;;;;;;;7.25;4.20;;;;;;;;;;4922403;29;20105;-88
2022/06/05 16:06:59;;;;;;;4.65;3.83;;;;;;;;;;4904405;29;20062;-88
2022/06/05 16:09:31;;;;;;;7.15;3.97;;;;;;;;;;4919851;29;20563;-84
2022/06/05 16:12:06;;;;;;;5.13;3.85;;;;;;;;;;4925547;29;20825;-80
2022/06/05 16:14:38;;;;;;;7.20;5.03;;;;;;;;;;4915105;29;20056;-85
2022/06/05 16:17:23;;;;;;;5.07;4.30;;;;;;;;;;4921883;29;20591;-83
2022/06/05 16:20:05;;;;;;;12.52;5.30;;;;;;;;;;4926248;29;20575;-82
2022/06/05 16:22:31;;;;;;;9.75;5.00;;;;;;;;;;4883176;29;20087;-81
2022/06/05 16:25:05;;;;;;;7.32;5.13;;;;;;;;;;4882670;29;20057;-82
2022/06/05 16:27:54;;;;;;;5.63;4.93;;;;;;;;;;4886018;29;20151;-85
2022/06/05 16:30:42;;;;;;;6.85;4.60;;;;;;;;;;4871650;29;20362;-82
2022/06/05 16:33:20;;;;;;;5.47;4.03;;;;;;;;;;4887997;23;20100;-87
2022/06/05 16:39:27;;;;;;;5.97;4.63;;;;;;;;;;4878691;29;20045;-83
2022/06/05 16:42:01;;;;;;;5.03;3.90;;;;;;;;;;4877294;29;20056;-87
2022/06/05 16:44:35;;;;;;;7.25;4.10;;;;;;;;;;4879088;29;20096;-85
2022/06/05 16:47:02;;;;;;;5.82;4.28;;;;;;;;;;4865348;29;20051;-84
2022/06/05 16:49:42;;;;;;;6.93;4.70;;;;;;;;;;4863957;29;20083;-84
2022/06/05 16:52:28;;;;;;;6.65;4.72;;;;;;;;;;4884269;29;20051;-83
2022/06/05 16:58:16;;;;;;;5.97;4.57;;;;;;;;;;4897714;29;20052;-86
2022/06/05 17:01:14;;;;;;;6.32;4.57;;;;;;;;;;4883315;29;20057;-86
2022/06/05 17:04:02;;;;;;;9.15;4.47;;;;;;;;;;4886861;29;20078;-85
2022/06/05 17:06:35;;;;;;;7.28;4.50;;;;;;;;;;4898425;29;20403;-82
2022/06/05 17:09:03;;;;;;;5.13;4.63;;;;;;;;;;4890158;29;20127;-85
2022/06/05 17:11:34;;;;;;;6.20;4.72;;;;;;;;;;4897113;29;20048;-85
2022/06/05 17:14:01;;;;;;;5.57;4.93;;;;;;;;;;4889651;29;20092;-85
2022/06/05 17:16:32;;;;;;;6.07;5.57;;;;;;;;;;4892117;29;20047;-85
2022/06/05 17:19:06;;;;;;;7.38;5.45;;;;;;;;;;4881220;29;20045;-87
2022/06/05 17:21:43;;;;;;;10.05;5.82;;;;;;;;;;4899669;29;20048;-82
2022/06/05 17:24:09;;;;;;;8.75;5.82;;;;;;;;;;4893279;29;20052;-87
2022/06/05 17:27:05;;;;;;;6.50;5.90;;;20.60;99.90;;;;;;4899088;29;20036;-93
2022/06/05 17:29:50;;;;;;;7.80;6.90;;;;;;;;;;4903679;29;20056;-84
2022/06/05 17:32:26;;;;;;;8.65;6.68;;;;;;;;;;4907346;29;20060;-90
2022/06/05 17:35:01;;;;;;;10.05;6.13;;;;;;;;;;4907196;29;20104;-84